sensor_id;sensor_type;location;lat;lon;timestamp;P1;durP1;ratioP1;P2;durP2;ratioP2
37409;SDS011;23275;48.914;12.566;2024-02-21T00:00:35;10.63;;;4.70;;
37409;SDS011;23275;48.914;12.566;2024-02-21T00:03:03;12.60;;;4.32;;
37409;SDS011;23275;48.914;12.566;2024-02-21T00:05:29;12.10;;;4.85;;
37409;SDS011;23275;48.914;12.566;2024-02-21T00:07:55;10.40;;;4.45;;
37409;SDS011;23275;48.914;12.566;2024-02-21T00:10:21;12.18;;;4.25;;
37409;SDS011;23275;48.914;12.566;2024-02-21T00:12:46;12.27;;;4.38;;
37409;SDS011;23275;48.914;12.566;2024-02-21T00:15:12;11.90;;;4.15;;
37409;SDS011;23275;48.914;12.566;2024-02-21T00:17:37;11.57;;;4.57;;
37409;SDS011;23275;48.914;12.566;2024-02-21T00:20:03;11.25;;;4.90;;
37409;SDS011;23275;48.914;12.566;2024-02-21T00:22:29;7.97;;;3.92;;
37409;SDS011;23275;48.914;12.566;2024-02-21T00:24:56;11.30;;;5.20;;
37409;SDS011;23275;48.914;12.566;2024-02-21T00:27:23;15.88;;;4.95;;
37409;SDS011;23275;48.914;12.566;2024-02-21T00:29:48;17.08;;;4.63;;
37409;SDS011;23275;48.914;12.566;2024-02-21T00:32:14;12.02;;;4.43;;
37409;SDS011;23275;48.914;12.566;2024-02-21T00:34:39;8.65;;;4.28;;
37409;SDS011;23275;48.914;12.566;2024-02-21T00:37:05;9.90;;;3.15;;
37409;SDS011;23275;48.914;12.566;2024-02-21T00:39:31;9.82;;;3.60;;
37409;SDS011;23275;48.914;12.566;2024-02-21T00:41:57;7.60;;;3.15;;
37409;SDS011;23275;48.914;12.566;2024-02-21T00:44:22;8.60;;;3.70;;
37409;SDS011;23275;48.914;12.566;2024-02-21T00:46:48;12.55;;;3.50;;
37409;SDS011;23275;48.914;12.566;2024-02-21T00:49:13;7.22;;;3.40;;
37409;SDS011;23275;48.914;12.566;2024-02-21T00:51:39;10.65;;;3.67;;
37409;SDS011;23275;48.914;12.566;2024-02-21T00:54:04;9.85;;;3.67;;
37409;SDS011;23275;48.914;12.566;2024-02-21T00:56:31;10.48;;;4.00;;
37409;SDS011;23275;48.914;12.566;2024-02-21T00:58:56;12.63;;;3.80;;
37409;SDS011;23275;48.914;12.566;2024-02-21T01:01:23;6.68;;;2.72;;
37409;SDS011;23275;48.914;12.566;2024-02-21T01:03:49;8.32;;;3.50;;
37409;SDS011;23275;48.914;12.566;2024-02-21T01:06:18;8.75;;;3.22;;
37409;SDS011;23275;48.914;12.566;2024-02-21T01:08:44;13.75;;;3.72;;
37409;SDS011;23275;48.914;12.566;2024-02-21T01:11:10;11.63;;;3.53;;
37409;SDS011;23275;48.914;12.566;2024-02-21T01:13:36;10.05;;;3.10;;
37409;SDS011;23275;48.914;12.566;2024-02-21T01:16:02;8.43;;;3.30;;
37409;SDS011;23275;48.914;12.566;2024-02-21T01:18:28;8.55;;;3.40;;
37409;SDS011;23275;48.914;12.566;2024-02-21T01:20:53;10.45;;;3.42;;
37409;SDS011;23275;48.914;12.566;2024-02-21T01:23:19;6.18;;;2.83;;
37409;SDS011;23275;48.914;12.566;2024-02-21T01:25:44;7.70;;;2.90;;
37409;SDS011;23275;48.914;12.566;2024-02-21T01:28:10;11.65;;;2.80;;
37409;SDS011;23275;48.914;12.566;2024-02-21T01:30:35;5.78;;;3.25;;
37409;SDS011;23275;48.914;12.566;2024-02-21T01:33:01;9.93;;;3.50;;
37409;SDS011;23275;48.914;12.566;2024-02-21T01:35:26;9.30;;;3.17;;
37409;SDS011;23275;48.914;12.566;2024-02-21T01:37:52;8.68;;;3.35;;
37409;SDS011;23275;48.914;12.566;2024-02-21T01:40:18;13.60;;;2.70;;
37409;SDS011;23275;48.914;12.566;2024-02-21T01:42:43;8.95;;;3.83;;
37409;SDS011;23275;48.914;12.566;2024-02-21T01:45:09;12.43;;;3.67;;
37409;SDS011;23275;48.914;12.566;2024-02-21T01:47:35;11.75;;;3.92;;
37409;SDS011;23275;48.914;12.566;2024-02-21T01:50:01;10.02;;;3.85;;
37409;SDS011;23275;48.914;12.566;2024-02-21T01:52:28;18.58;;;5.03;;
37409;SDS011;23275;48.914;12.566;2024-02-21T01:54:55;10.43;;;3.70;;
37409;SDS011;23275;48.914;12.566;2024-02-21T01:57:22;10.90;;;3.72;;
37409;SDS011;23275;48.914;12.566;2024-02-21T01:59:48;14.20;;;4.25;;
37409;SDS011;23275;48.914;12.566;2024-02-21T02:02:14;12.23;;;4.43;;
37409;SDS011;23275;48.914;12.566;2024-02-21T02:04:41;11.50;;;3.97;;
37409;SDS011;23275;48.914;12.566;2024-02-21T02:07:08;12.52;;;3.67;;
37409;SDS011;23275;48.914;12.566;2024-02-21T02:09:34;9.73;;;3.45;;
37409;SDS011;23275;48.914;12.566;2024-02-21T02:12:00;11.40;;;3.80;;
37409;SDS011;23275;48.914;12.566;2024-02-21T02:14:26;13.55;;;4.15;;
37409;SDS011;23275;48.914;12.566;2024-02-21T02:16:52;8.13;;;3.10;;
37409;SDS011;23275;48.914;12.566;2024-02-21T02:19:17;18.80;;;4.57;;
37409;SDS011;23275;48.914;12.566;2024-02-21T02:21:45;12.52;;;4.15;;
37409;SDS011;23275;48.914;12.566;2024-02-21T02:24:18;9.60;;;3.95;;
37409;SDS011;23275;48.914;12.566;2024-02-21T02:26:44;9.27;;;3.80;;
37409;SDS011;23275;48.914;12.566;2024-02-21T02:29:10;8.27;;;3.67;;
37409;SDS011;23275;48.914;12.566;2024-02-21T02:31:36;9.52;;;4.10;;
37409;SDS011;23275;48.914;12.566;2024-02-21T02:34:03;10.05;;;3.55;;
37409;SDS011;23275;48.914;12.566;2024-02-21T02:36:29;9.95;;;3.35;;
37409;SDS011;23275;48.914;12.566;2024-02-21T02:38:56;12.32;;;4.10;;
37409;SDS011;23275;48.914;12.566;2024-02-21T02:41:22;8.95;;;3.08;;
37409;SDS011;23275;48.914;12.566;2024-02-21T02:43:47;8.45;;;3.38;;
37409;SDS011;23275;48.914;12.566;2024-02-21T02:46:13;9.35;;;3.58;;
37409;SDS011;23275;48.914;12.566;2024-02-21T02:48:38;9.88;;;4.05;;
37409;SDS011;23275;48.914;12.566;2024-02-21T02:51:05;13.85;;;5.43;;
37409;SDS011;23275;48.914;12.566;2024-02-21T02:53:30;16.17;;;5.45;;
37409;SDS011;23275;48.914;12.566;2024-02-21T02:55:56;14.93;;;6.35;;
37409;SDS011;23275;48.914;12.566;2024-02-21T02:58:21;39.10;;;17.88;;
37409;SDS011;23275;48.914;12.566;2024-02-21T03:00:47;14.77;;;6.80;;
37409;SDS011;23275;48.914;12.566;2024-02-21T03:03:12;11.00;;;4.88;;
37409;SDS011;23275;48.914;12.566;2024-02-21T03:05:38;14.18;;;8.38;;
37409;SDS011;23275;48.914;12.566;2024-02-21T03:08:03;14.73;;;6.03;;
37409;SDS011;23275;48.914;12.566;2024-02-21T03:10:32;12.35;;;4.47;;
37409;SDS011;23275;48.914;12.566;2024-02-21T03:12:58;10.10;;;3.65;;
37409;SDS011;23275;48.914;12.566;2024-02-21T03:15:24;10.88;;;4.20;;
37409;SDS011;23275;48.914;12.566;2024-02-21T03:17:50;7.60;;;3.97;;
37409;SDS011;23275;48.914;12.566;2024-02-21T03:20:16;9.43;;;4.32;;
37409;SDS011;23275;48.914;12.566;2024-02-21T03:22:42;14.30;;;4.13;;
37409;SDS011;23275;48.914;12.566;2024-02-21T03:25:08;11.75;;;3.60;;
37409;SDS011;23275;48.914;12.566;2024-02-21T03:27:35;8.23;;;3.78;;
37409;SDS011;23275;48.914;12.566;2024-02-21T03:30:01;8.35;;;3.50;;
37409;SDS011;23275;48.914;12.566;2024-02-21T03:32:27;12.80;;;3.75;;
37409;SDS011;23275;48.914;12.566;2024-02-21T03:34:53;10.63;;;3.50;;
37409;SDS011;23275;48.914;12.566;2024-02-21T03:37:19;9.05;;;3.13;;
37409;SDS011;23275;48.914;12.566;2024-02-21T03:39:45;7.47;;;2.83;;
37409;SDS011;23275;48.914;12.566;2024-02-21T03:42:11;6.65;;;2.78;;
37409;SDS011;23275;48.914;12.566;2024-02-21T03:44:36;9.20;;;2.58;;
37409;SDS011;23275;48.914;12.566;2024-02-21T03:47:02;7.82;;;2.70;;
37409;SDS011;23275;48.914;12.566;2024-02-21T03:49:28;8.48;;;3.08;;
37409;SDS011;23275;48.914;12.566;2024-02-21T03:51:54;8.48;;;2.47;;
37409;SDS011;23275;48.914;12.566;2024-02-21T03:54:20;8.90;;;2.90;;
37409;SDS011;23275;48.914;12.566;2024-02-21T03:56:45;9.68;;;3.17;;
37409;SDS011;23275;48.914;12.566;2024-02-21T03:59:14;6.85;;;2.50;;
37409;SDS011;23275;48.914;12.566;2024-02-21T04:01:40;8.40;;;2.92;;
37409;SDS011;23275;48.914;12.566;2024-02-21T04:04:05;8.63;;;2.78;;
37409;SDS011;23275;48.914;12.566;2024-02-21T04:06:31;4.45;;;2.20;;
37409;SDS011;23275;48.914;12.566;2024-02-21T04:08:57;8.52;;;2.47;;
37409;SDS011;23275;48.914;12.566;2024-02-21T04:11:23;7.55;;;2.60;;
37409;SDS011;23275;48.914;12.566;2024-02-21T04:13:48;11.45;;;2.38;;
37409;SDS011;23275;48.914;12.566;2024-02-21T04:16:15;6.20;;;2.55;;
37409;SDS011;23275;48.914;12.566;2024-02-21T04:18:41;8.35;;;2.45;;
37409;SDS011;23275;48.914;12.566;2024-02-21T04:21:07;9.77;;;2.05;;
37409;SDS011;23275;48.914;12.566;2024-02-21T04:23:33;7.57;;;2.55;;
37409;SDS011;23275;48.914;12.566;2024-02-21T04:25:58;8.27;;;2.75;;
37409;SDS011;23275;48.914;12.566;2024-02-21T04:28:24;6.65;;;2.15;;
37409;SDS011;23275;48.914;12.566;2024-02-21T04:30:49;8.18;;;2.55;;
37409;SDS011;23275;48.914;12.566;2024-02-21T04:33:15;6.45;;;2.85;;
37409;SDS011;23275;48.914;12.566;2024-02-21T04:35:41;7.53;;;2.90;;
37409;SDS011;23275;48.914;12.566;2024-02-21T04:38:06;5.88;;;2.95;;
37409;SDS011;23275;48.914;12.566;2024-02-21T04:40:32;9.65;;;3.45;;
37409;SDS011;23275;48.914;12.566;2024-02-21T04:42:57;7.80;;;3.40;;
37409;SDS011;23275;48.914;12.566;2024-02-21T04:45:23;12.93;;;2.80;;
37409;SDS011;23275;48.914;12.566;2024-02-21T04:47:48;8.70;;;2.75;;
37409;SDS011;23275;48.914;12.566;2024-02-21T04:50:14;13.60;;;3.30;;
37409;SDS011;23275;48.914;12.566;2024-02-21T04:52:40;9.88;;;3.17;;
37409;SDS011;23275;48.914;12.566;2024-02-21T04:55:05;10.82;;;3.25;;
37409;SDS011;23275;48.914;12.566;2024-02-21T04:57:32;9.73;;;3.20;;
37409;SDS011;23275;48.914;12.566;2024-02-21T04:59:57;9.07;;;3.00;;
37409;SDS011;23275;48.914;12.566;2024-02-21T05:02:23;10.55;;;3.03;;
37409;SDS011;23275;48.914;12.566;2024-02-21T05:04:49;8.18;;;2.83;;
37409;SDS011;23275;48.914;12.566;2024-02-21T05:07:15;7.88;;;2.80;;
37409;SDS011;23275;48.914;12.566;2024-02-21T05:09:44;7.25;;;2.97;;
37409;SDS011;23275;48.914;12.566;2024-02-21T05:12:10;8.85;;;3.10;;
37409;SDS011;23275;48.914;12.566;2024-02-21T05:14:35;13.70;;;2.85;;
37409;SDS011;23275;48.914;12.566;2024-02-21T05:17:01;11.35;;;2.90;;
37409;SDS011;23275;48.914;12.566;2024-02-21T05:19:26;8.65;;;2.70;;
37409;SDS011;23275;48.914;12.566;2024-02-21T05:21:52;9.02;;;3.00;;
37409;SDS011;23275;48.914;12.566;2024-02-21T05:24:17;9.70;;;2.88;;
37409;SDS011;23275;48.914;12.566;2024-02-21T05:26:43;13.52;;;3.22;;
37409;SDS011;23275;48.914;12.566;2024-02-21T05:29:08;8.65;;;2.95;;
37409;SDS011;23275;48.914;12.566;2024-02-21T05:34:18;11.48;;;3.90;;
37409;SDS011;23275;48.914;12.566;2024-02-21T05:36:44;10.07;;;3.28;;
37409;SDS011;23275;48.914;12.566;2024-02-21T05:39:14;8.63;;;4.03;;
37409;SDS011;23275;48.914;12.566;2024-02-21T05:41:41;9.52;;;3.42;;
37409;SDS011;23275;48.914;12.566;2024-02-21T05:44:07;11.02;;;4.85;;
37409;SDS011;23275;48.914;12.566;2024-02-21T05:46:33;7.70;;;2.97;;
37409;SDS011;23275;48.914;12.566;2024-02-21T05:48:58;8.60;;;2.97;;
37409;SDS011;23275;48.914;12.566;2024-02-21T05:51:24;9.80;;;3.28;;
37409;SDS011;23275;48.914;12.566;2024-02-21T05:53:49;10.55;;;2.75;;
37409;SDS011;23275;48.914;12.566;2024-02-21T05:56:15;13.75;;;3.42;;
37409;SDS011;23275;48.914;12.566;2024-02-21T05:58:42;14.20;;;3.75;;
37409;SDS011;23275;48.914;12.566;2024-02-21T06:01:07;7.85;;;2.88;;
37409;SDS011;23275;48.914;12.566;2024-02-21T06:03:33;10.20;;;2.90;;
37409;SDS011;23275;48.914;12.566;2024-02-21T06:05:59;8.63;;;2.83;;
37409;SDS011;23275;48.914;12.566;2024-02-21T06:08:25;9.32;;;2.88;;
37409;SDS011;23275;48.914;12.566;2024-02-21T06:10:51;6.65;;;2.63;;
37409;SDS011;23275;48.914;12.566;2024-02-21T06:13:19;11.35;;;2.88;;
37409;SDS011;23275;48.914;12.566;2024-02-21T06:15:51;8.07;;;2.95;;
37409;SDS011;23275;48.914;12.566;2024-02-21T06:18:17;6.93;;;2.85;;
37409;SDS011;23275;48.914;12.566;2024-02-21T06:20:43;8.95;;;2.97;;
37409;SDS011;23275;48.914;12.566;2024-02-21T06:23:09;8.88;;;2.78;;
37409;SDS011;23275;48.914;12.566;2024-02-21T06:25:34;9.48;;;3.08;;
37409;SDS011;23275;48.914;12.566;2024-02-21T06:28:00;6.28;;;2.63;;
37409;SDS011;23275;48.914;12.566;2024-02-21T06:30:26;10.10;;;3.05;;
37409;SDS011;23275;48.914;12.566;2024-02-21T06:32:51;13.60;;;3.13;;
37409;SDS011;23275;48.914;12.566;2024-02-21T06:35:17;6.53;;;3.00;;
37409;SDS011;23275;48.914;12.566;2024-02-21T06:37:43;6.68;;;3.00;;
37409;SDS011;23275;48.914;12.566;2024-02-21T06:40:15;8.18;;;2.90;;
37409;SDS011;23275;48.914;12.566;2024-02-21T06:42:41;8.13;;;3.15;;
37409;SDS011;23275;48.914;12.566;2024-02-21T06:45:06;8.52;;;3.05;;
37409;SDS011;23275;48.914;12.566;2024-02-21T06:47:32;10.40;;;3.22;;
37409;SDS011;23275;48.914;12.566;2024-02-21T06:49:58;8.27;;;2.80;;
37409;SDS011;23275;48.914;12.566;2024-02-21T06:52:23;6.15;;;2.63;;
37409;SDS011;23275;48.914;12.566;2024-02-21T06:54:49;10.32;;;3.28;;
37409;SDS011;23275;48.914;12.566;2024-02-21T06:57:15;7.88;;;3.20;;
37409;SDS011;23275;48.914;12.566;2024-02-21T06:59:41;7.78;;;2.97;;
37409;SDS011;23275;48.914;12.566;2024-02-21T07:02:06;6.70;;;2.33;;
37409;SDS011;23275;48.914;12.566;2024-02-21T07:04:32;7.90;;;2.88;;
37409;SDS011;23275;48.914;12.566;2024-02-21T07:06:58;8.13;;;2.72;;
37409;SDS011;23275;48.914;12.566;2024-02-21T07:09:24;8.57;;;2.95;;
37409;SDS011;23275;48.914;12.566;2024-02-21T07:11:49;6.88;;;2.35;;
37409;SDS011;23275;48.914;12.566;2024-02-21T07:14:15;5.07;;;2.10;;
37409;SDS011;23275;48.914;12.566;2024-02-21T07:16:40;9.52;;;2.47;;
37409;SDS011;23275;48.914;12.566;2024-02-21T07:19:06;9.40;;;2.80;;
37409;SDS011;23275;48.914;12.566;2024-02-21T07:21:32;9.35;;;2.90;;
37409;SDS011;23275;48.914;12.566;2024-02-21T07:23:58;9.32;;;1.80;;
37409;SDS011;23275;48.914;12.566;2024-02-21T07:26:23;10.52;;;2.60;;
37409;SDS011;23275;48.914;12.566;2024-02-21T07:28:49;9.07;;;3.13;;
37409;SDS011;23275;48.914;12.566;2024-02-21T07:31:14;8.70;;;2.58;;
37409;SDS011;23275;48.914;12.566;2024-02-21T07:33:40;13.05;;;2.80;;
37409;SDS011;23275;48.914;12.566;2024-02-21T07:36:07;6.53;;;2.47;;
37409;SDS011;23275;48.914;12.566;2024-02-21T07:38:35;8.48;;;2.95;;
37409;SDS011;23275;48.914;12.566;2024-02-21T07:41:00;7.50;;;2.60;;
37409;SDS011;23275;48.914;12.566;2024-02-21T07:43:26;8.43;;;2.85;;
37409;SDS011;23275;48.914;12.566;2024-02-21T07:45:52;11.02;;;2.58;;
37409;SDS011;23275;48.914;12.566;2024-02-21T07:48:21;7.90;;;2.33;;
37409;SDS011;23275;48.914;12.566;2024-02-21T07:50:50;6.32;;;2.38;;
37409;SDS011;23275;48.914;12.566;2024-02-21T07:53:16;9.82;;;2.60;;
37409;SDS011;23275;48.914;12.566;2024-02-21T07:55:42;9.48;;;2.60;;
37409;SDS011;23275;48.914;12.566;2024-02-21T07:58:07;8.45;;;2.60;;
37409;SDS011;23275;48.914;12.566;2024-02-21T08:00:33;7.28;;;2.50;;
37409;SDS011;23275;48.914;12.566;2024-02-21T08:02:59;6.43;;;2.40;;
37409;SDS011;23275;48.914;12.566;2024-02-21T08:05:25;11.10;;;2.80;;
37409;SDS011;23275;48.914;12.566;2024-02-21T08:07:51;8.43;;;2.78;;
37409;SDS011;23275;48.914;12.566;2024-02-21T08:10:16;7.85;;;2.30;;
37409;SDS011;23275;48.914;12.566;2024-02-21T08:12:42;8.68;;;2.28;;
37409;SDS011;23275;48.914;12.566;2024-02-21T08:15:07;7.03;;;2.00;;
37409;SDS011;23275;48.914;12.566;2024-02-21T08:17:35;8.27;;;1.95;;
37409;SDS011;23275;48.914;12.566;2024-02-21T08:20:02;10.13;;;2.25;;
37409;SDS011;23275;48.914;12.566;2024-02-21T08:22:29;7.47;;;2.15;;
37409;SDS011;23275;48.914;12.566;2024-02-21T08:24:55;8.13;;;2.20;;
37409;SDS011;23275;48.914;12.566;2024-02-21T08:27:20;5.80;;;1.70;;
37409;SDS011;23275;48.914;12.566;2024-02-21T08:29:46;7.88;;;1.90;;
37409;SDS011;23275;48.914;12.566;2024-02-21T08:32:11;7.22;;;2.00;;
37409;SDS011;23275;48.914;12.566;2024-02-21T08:34:37;6.93;;;1.83;;
37409;SDS011;23275;48.914;12.566;2024-02-21T08:37:03;5.28;;;1.65;;
37409;SDS011;23275;48.914;12.566;2024-02-21T08:39:28;6.90;;;2.15;;
37409;SDS011;23275;48.914;12.566;2024-02-21T08:41:55;9.02;;;2.72;;
37409;SDS011;23275;48.914;12.566;2024-02-21T08:44:24;7.22;;;2.03;;
37409;SDS011;23275;48.914;12.566;2024-02-21T08:46:53;5.53;;;1.58;;
37409;SDS011;23275;48.914;12.566;2024-02-21T08:49:18;5.35;;;1.48;;
37409;SDS011;23275;48.914;12.566;2024-02-21T08:51:44;5.43;;;1.40;;
37409;SDS011;23275;48.914;12.566;2024-02-21T08:54:11;6.40;;;1.30;;
37409;SDS011;23275;48.914;12.566;2024-02-21T08:56:36;6.13;;;1.20;;
37409;SDS011;23275;48.914;12.566;2024-02-21T08:59:02;4.18;;;1.60;;
37409;SDS011;23275;48.914;12.566;2024-02-21T09:01:28;6.72;;;1.52;;
37409;SDS011;23275;48.914;12.566;2024-02-21T09:03:54;5.05;;;2.08;;
37409;SDS011;23275;48.914;12.566;2024-02-21T09:06:21;8.50;;;1.58;;
37409;SDS011;23275;48.914;12.566;2024-02-21T09:08:47;5.78;;;1.52;;
37409;SDS011;23275;48.914;12.566;2024-02-21T09:11:13;4.90;;;1.50;;
37409;SDS011;23275;48.914;12.566;2024-02-21T09:13:39;7.72;;;1.85;;
37409;SDS011;23275;48.914;12.566;2024-02-21T09:16:04;5.03;;;1.60;;
37409;SDS011;23275;48.914;12.566;2024-02-21T09:18:31;5.95;;;1.48;;
37409;SDS011;23275;48.914;12.566;2024-02-21T09:20:56;4.80;;;1.38;;
37409;SDS011;23275;48.914;12.566;2024-02-21T09:23:25;5.00;;;1.20;;
37409;SDS011;23275;48.914;12.566;2024-02-21T09:25:51;7.35;;;1.77;;
37409;SDS011;23275;48.914;12.566;2024-02-21T09:28:16;8.00;;;1.80;;
37409;SDS011;23275;48.914;12.566;2024-02-21T09:30:42;7.47;;;1.63;;
37409;SDS011;23275;48.914;12.566;2024-02-21T09:33:08;6.93;;;1.70;;
37409;SDS011;23275;48.914;12.566;2024-02-21T09:35:33;6.57;;;1.70;;
37409;SDS011;23275;48.914;12.566;2024-02-21T09:37:59;5.88;;;1.42;;
37409;SDS011;23275;48.914;12.566;2024-02-21T09:40:25;5.60;;;1.23;;
37409;SDS011;23275;48.914;12.566;2024-02-21T09:42:53;6.32;;;1.95;;
37409;SDS011;23275;48.914;12.566;2024-02-21T09:45:34;5.88;;;1.80;;
37409;SDS011;23275;48.914;12.566;2024-02-21T09:50:44;6.45;;;1.63;;
37409;SDS011;23275;48.914;12.566;2024-02-21T09:53:12;7.07;;;2.10;;
37409;SDS011;23275;48.914;12.566;2024-02-21T09:55:41;5.43;;;1.60;;
37409;SDS011;23275;48.914;12.566;2024-02-21T09:58:08;3.92;;;1.42;;
37409;SDS011;23275;48.914;12.566;2024-02-21T10:00:37;7.47;;;1.60;;
37409;SDS011;23275;48.914;12.566;2024-02-21T10:03:03;5.10;;;1.45;;
37409;SDS011;23275;48.914;12.566;2024-02-21T10:05:33;5.93;;;1.63;;
37409;SDS011;23275;48.914;12.566;2024-02-21T10:08:00;5.03;;;1.42;;
37409;SDS011;23275;48.914;12.566;2024-02-21T10:10:27;10.05;;;1.80;;
37409;SDS011;23275;48.914;12.566;2024-02-21T10:12:54;7.45;;;1.65;;
37409;SDS011;23275;48.914;12.566;2024-02-21T10:15:20;5.78;;;1.63;;
37409;SDS011;23275;48.914;12.566;2024-02-21T10:17:47;6.22;;;1.58;;
37409;SDS011;23275;48.914;12.566;2024-02-21T10:20:13;5.60;;;1.70;;
37409;SDS011;23275;48.914;12.566;2024-02-21T10:22:40;6.10;;;1.60;;
37409;SDS011;23275;48.914;12.566;2024-02-21T10:25:11;5.57;;;1.88;;
37409;SDS011;23275;48.914;12.566;2024-02-21T10:27:38;8.20;;;2.22;;
37409;SDS011;23275;48.914;12.566;2024-02-21T10:30:12;7.25;;;1.67;;
37409;SDS011;23275;48.914;12.566;2024-02-21T10:32:51;6.72;;;1.88;;
37409;SDS011;23275;48.914;12.566;2024-02-21T10:35:25;4.78;;;1.60;;
37409;SDS011;23275;48.914;12.566;2024-02-21T10:37:52;8.25;;;1.75;;
37409;SDS011;23275;48.914;12.566;2024-02-21T10:40:22;6.97;;;1.60;;
37409;SDS011;23275;48.914;12.566;2024-02-21T10:42:55;8.63;;;1.77;;
37409;SDS011;23275;48.914;12.566;2024-02-21T10:45:25;6.55;;;1.30;;
37409;SDS011;23275;48.914;12.566;2024-02-21T10:48:06;7.85;;;1.40;;
37409;SDS011;23275;48.914;12.566;2024-02-21T10:50:53;5.82;;;1.58;;
37409;SDS011;23275;48.914;12.566;2024-02-21T10:53:42;5.63;;;1.13;;
37409;SDS011;23275;48.914;12.566;2024-02-21T10:56:28;5.13;;;1.27;;
37409;SDS011;23275;48.914;12.566;2024-02-21T10:58:56;4.63;;;1.35;;
37409;SDS011;23275;48.914;12.566;2024-02-21T11:01:23;4.68;;;1.20;;
37409;SDS011;23275;48.914;12.566;2024-02-21T11:03:49;4.22;;;1.02;;
37409;SDS011;23275;48.914;12.566;2024-02-21T11:06:19;3.67;;;1.20;;
37409;SDS011;23275;48.914;12.566;2024-02-21T11:08:46;4.32;;;1.38;;
37409;SDS011;23275;48.914;12.566;2024-02-21T11:11:14;6.38;;;1.67;;
37409;SDS011;23275;48.914;12.566;2024-02-21T11:13:42;3.30;;;1.08;;
37409;SDS011;23275;48.914;12.566;2024-02-21T11:16:09;5.20;;;1.40;;
37409;SDS011;23275;48.914;12.566;2024-02-21T11:18:38;4.43;;;1.25;;
37409;SDS011;23275;48.914;12.566;2024-02-21T11:21:04;6.80;;;1.42;;
37409;SDS011;23275;48.914;12.566;2024-02-21T11:23:30;7.40;;;1.48;;
37409;SDS011;23275;48.914;12.566;2024-02-21T11:26:09;4.15;;;1.23;;
37409;SDS011;23275;48.914;12.566;2024-02-21T11:28:35;5.72;;;1.25;;
37409;SDS011;23275;48.914;12.566;2024-02-21T11:31:09;4.22;;;1.48;;
37409;SDS011;23275;48.914;12.566;2024-02-21T11:33:39;5.40;;;1.33;;
37409;SDS011;23275;48.914;12.566;2024-02-21T11:36:06;6.53;;;1.60;;
37409;SDS011;23275;48.914;12.566;2024-02-21T11:38:32;3.97;;;1.40;;
37409;SDS011;23275;48.914;12.566;2024-02-21T11:40:58;7.45;;;1.58;;
37409;SDS011;23275;48.914;12.566;2024-02-21T11:43:23;4.07;;;1.10;;
37409;SDS011;23275;48.914;12.566;2024-02-21T11:45:50;5.32;;;1.52;;
37409;SDS011;23275;48.914;12.566;2024-02-21T11:48:23;5.63;;;1.33;;
37409;SDS011;23275;48.914;12.566;2024-02-21T11:50:52;4.90;;;1.30;;
37409;SDS011;23275;48.914;12.566;2024-02-21T11:55:45;4.13;;;1.10;;
37409;SDS011;23275;48.914;12.566;2024-02-21T11:58:11;5.25;;;1.20;;
37409;SDS011;23275;48.914;12.566;2024-02-21T12:00:37;6.03;;;1.48;;
37409;SDS011;23275;48.914;12.566;2024-02-21T12:03:03;5.05;;;1.30;;
37409;SDS011;23275;48.914;12.566;2024-02-21T12:05:32;6.68;;;1.40;;
37409;SDS011;23275;48.914;12.566;2024-02-21T12:07:58;4.50;;;1.15;;
37409;SDS011;23275;48.914;12.566;2024-02-21T12:10:25;5.15;;;1.40;;
37409;SDS011;23275;48.914;12.566;2024-02-21T12:12:51;10.07;;;2.00;;
37409;SDS011;23275;48.914;12.566;2024-02-21T12:15:19;4.80;;;1.30;;
37409;SDS011;23275;48.914;12.566;2024-02-21T12:17:45;4.43;;;1.60;;
37409;SDS011;23275;48.914;12.566;2024-02-21T12:20:11;5.75;;;1.30;;
37409;SDS011;23275;48.914;12.566;2024-02-21T12:22:37;4.68;;;1.45;;
37409;SDS011;23275;48.914;12.566;2024-02-21T12:25:18;6.75;;;1.63;;
37409;SDS011;23275;48.914;12.566;2024-02-21T12:27:44;5.35;;;1.10;;
37409;SDS011;23275;48.914;12.566;2024-02-21T12:30:11;5.38;;;1.23;;
37409;SDS011;23275;48.914;12.566;2024-02-21T12:32:36;8.60;;;1.13;;
37409;SDS011;23275;48.914;12.566;2024-02-21T12:35:02;5.57;;;1.27;;
37409;SDS011;23275;48.914;12.566;2024-02-21T12:37:28;10.75;;;1.88;;
37409;SDS011;23275;48.914;12.566;2024-02-21T12:39:54;4.57;;;1.20;;
37409;SDS011;23275;48.914;12.566;2024-02-21T12:42:20;6.05;;;1.40;;
37409;SDS011;23275;48.914;12.566;2024-02-21T12:44:46;6.05;;;1.70;;
37409;SDS011;23275;48.914;12.566;2024-02-21T12:47:11;7.10;;;1.67;;
37409;SDS011;23275;48.914;12.566;2024-02-21T12:49:37;2.65;;;1.05;;
37409;SDS011;23275;48.914;12.566;2024-02-21T12:52:03;7.63;;;1.50;;
37409;SDS011;23275;48.914;12.566;2024-02-21T12:54:29;5.43;;;1.70;;
37409;SDS011;23275;48.914;12.566;2024-02-21T12:56:56;5.40;;;1.23;;
37409;SDS011;23275;48.914;12.566;2024-02-21T12:59:21;4.47;;;1.30;;
37409;SDS011;23275;48.914;12.566;2024-02-21T13:01:47;8.43;;;1.70;;
37409;SDS011;23275;48.914;12.566;2024-02-21T13:04:13;5.15;;;1.30;;
37409;SDS011;23275;48.914;12.566;2024-02-21T13:06:39;4.70;;;1.50;;
37409;SDS011;23275;48.914;12.566;2024-02-21T13:09:04;9.85;;;1.67;;
37409;SDS011;23275;48.914;12.566;2024-02-21T13:11:33;5.30;;;1.60;;
37409;SDS011;23275;48.914;12.566;2024-02-21T13:13:59;9.27;;;1.77;;
37409;SDS011;23275;48.914;12.566;2024-02-21T13:16:25;5.30;;;1.38;;
37409;SDS011;23275;48.914;12.566;2024-02-21T13:18:51;6.82;;;1.30;;
37409;SDS011;23275;48.914;12.566;2024-02-21T13:21:17;7.85;;;1.50;;
37409;SDS011;23275;48.914;12.566;2024-02-21T13:23:43;7.22;;;1.52;;
37409;SDS011;23275;48.914;12.566;2024-02-21T13:26:09;5.72;;;1.35;;
37409;SDS011;23275;48.914;12.566;2024-02-21T13:28:35;4.93;;;1.38;;
37409;SDS011;23275;48.914;12.566;2024-02-21T13:31:01;5.28;;;1.20;;
37409;SDS011;23275;48.914;12.566;2024-02-21T13:33:28;4.22;;;1.20;;
37409;SDS011;23275;48.914;12.566;2024-02-21T13:35:54;4.95;;;1.10;;
37409;SDS011;23275;48.914;12.566;2024-02-21T13:38:19;6.65;;;1.35;;
37409;SDS011;23275;48.914;12.566;2024-02-21T13:40:45;5.65;;;1.67;;
37409;SDS011;23275;48.914;12.566;2024-02-21T13:43:11;8.13;;;1.60;;
37409;SDS011;23275;48.914;12.566;2024-02-21T13:45:37;8.48;;;1.40;;
37409;SDS011;23275;48.914;12.566;2024-02-21T13:48:03;6.47;;;1.88;;
37409;SDS011;23275;48.914;12.566;2024-02-21T13:50:31;3.15;;;0.98;;
37409;SDS011;23275;48.914;12.566;2024-02-21T13:52:57;5.78;;;1.30;;
37409;SDS011;23275;48.914;12.566;2024-02-21T13:55:23;4.88;;;1.05;;
37409;SDS011;23275;48.914;12.566;2024-02-21T13:57:51;5.43;;;1.35;;
37409;SDS011;23275;48.914;12.566;2024-02-21T14:00:17;4.30;;;0.93;;
37409;SDS011;23275;48.914;12.566;2024-02-21T14:02:45;5.60;;;1.10;;
37409;SDS011;23275;48.914;12.566;2024-02-21T14:05:11;5.28;;;0.85;;
37409;SDS011;23275;48.914;12.566;2024-02-21T14:07:36;2.67;;;0.50;;
37409;SDS011;23275;48.914;12.566;2024-02-21T14:10:02;7.80;;;1.10;;
37409;SDS011;23275;48.914;12.566;2024-02-21T14:12:28;3.42;;;1.00;;
37409;SDS011;23275;48.914;12.566;2024-02-21T14:14:54;2.25;;;0.80;;
37409;SDS011;23275;48.914;12.566;2024-02-21T14:17:23;5.50;;;0.82;;
37409;SDS011;23275;48.914;12.566;2024-02-21T14:19:49;5.43;;;0.60;;
37409;SDS011;23275;48.914;12.566;2024-02-21T14:22:16;3.70;;;0.80;;
37409;SDS011;23275;48.914;12.566;2024-02-21T14:24:42;1.65;;;0.55;;
37409;SDS011;23275;48.914;12.566;2024-02-21T14:27:08;3.97;;;0.73;;
37409;SDS011;23275;48.914;12.566;2024-02-21T14:29:34;4.68;;;0.90;;
37409;SDS011;23275;48.914;12.566;2024-02-21T14:31:59;2.20;;;0.45;;
37409;SDS011;23275;48.914;12.566;2024-02-21T14:34:25;3.20;;;0.50;;